Kezdőlap
METAR-TAF:

METAR-TAF

Repülőterek :

Wattisham, Anglia

földrajzi szélesség: 52-07N, földrajzi hosszúság: 000-58E, magasság: 87 m

Jelenlegi meteorológiai megfigyelések

A jelentés 1 órával és 1 perccel ezelõtt készült, 14:50 UTC
Nyugat-délnyugati szél 13 kt
Hőmérséklet 8°C
Páratartalom 71%
Légköri nyomás 996 hPa
Látótávolság 10 km, vagy több

METAR: EGUW 151450Z AUTO 24013KT 9999 FEW046/// 08/03 Q0996

Idő: 15:51 (15:51 UTC)


TAF: hiányzik

Meteorológiai megfigyelések és előrejelzések több, mint 4000 repülőtéren (METAR és TAF jelentéseket).

A térképen piros és sárga pontok jelzik az elérhető meteorológiai állomásokat.

Mozgassa az egeret a pont fölött, hogy megjelenjen az állomás neve.

Azután kattintson az időjárási megfigyelések és előrejelzések megtekintéséhez.

A térkép megváltoztatása: kattintson a fekete keresztel jelölt zöld gombra ráközelítéshez, a vonallal jelölt zöld gombra távolításhoz, vagy a zöld nyilakra a szomszédos térképek eléréséhez.


METAR-TAF: